»·PEaware :: N45XS KVCV-KSNA

N45XS :: KVCV-KSNA

FLIGHT INFORMATION

Flight Status: Arrived
Operator: Privately registered:
United States
More flights under this callsign
Pilot: Anthony R. (29179)
Aircraft: BEECH AIRCRAFT BARON
(BE58)
More flights by this aircraft type
Origin: KVCV Socal Logistics
United States
Destination: KSNA John Wayne-Orange Co
United States
More flights between these airports :: More routes between these airports
Route: +PMD V201 BERRI V459 SLI
File this flight plan on PilotEdge
Remarks:
Altitude:
(Current/Filed)
10,000ft
Speed:
(Current/Filed)
150kts
Departed: 10-Sep-20 09:51 AM
Arrived: 10-Sep-20 10:43 AM
Distance/Time
Traveled:
60nm/0:52
Distance/Time
To Go:
Arrived

Flight Plot

Page will automatically refresh every two minutes.

Flight plan parsing failed; only flown route is shown


Map Options




Map Legend


Flown Route
Filed Route
Departure Airport
Arrival Airport
Navaid (VOR, NDB)
Fix

Horizontal Profiles

Position Reports

Time Latitude Longitude Heading Altitude Ground
Speed
10-Sep-20 09:25 34.588333 -117.376341 313 2871ft 0kts
10-Sep-20 09:26 34.588333 -117.376341 314 2871ft 0kts
10-Sep-20 09:27 34.588333 -117.376341 313 2871ft 0kts
10-Sep-20 09:28 34.588333 -117.376341 313 2871ft 0kts
10-Sep-20 09:29 34.588333 -117.376341 313 2871ft 0kts
10-Sep-20 09:30 34.588333 -117.376341 313 2871ft 0kts
10-Sep-20 09:31 34.588333 -117.376341 313 2871ft 0kts
10-Sep-20 09:31 34.588333 -117.376341 314 2871ft 0kts
10-Sep-20 09:33 34.588333 -117.376341 314 2871ft 0kts
10-Sep-20 09:34 34.588333 -117.376341 314 2871ft 0kts
10-Sep-20 09:34 34.588333 -117.376341 314 2871ft 0kts
10-Sep-20 09:36 34.588333 -117.376341 314 2871ft 0kts
10-Sep-20 09:36 34.588333 -117.376341 314 2871ft 0kts
10-Sep-20 09:37 34.588333 -117.376341 314 2871ft 0kts
10-Sep-20 09:39 34.588333 -117.376341 314 2871ft 0kts
10-Sep-20 09:39 34.588333 -117.376341 314 2871ft 0kts
10-Sep-20 09:40 34.588333 -117.376341 314 2871ft 0kts
10-Sep-20 09:41 34.588333 -117.376341 314 2871ft 0kts
10-Sep-20 09:42 34.588492 -117.376543 313 2871ft 0kts
10-Sep-20 09:43 34.590729 -117.375355 44 2867ft 21kts
10-Sep-20 09:44 34.593301 -117.368914 87 2858ft 2kts
10-Sep-20 09:45 34.593320 -117.368365 89 2858ft 0kts
10-Sep-20 09:46 34.593320 -117.368365 89 2858ft 0kts
10-Sep-20 09:47 34.594392 -117.367697 9 2853ft 12kts
10-Sep-20 09:48 34.598731 -117.366731 11 2845ft 12kts
10-Sep-20 09:49 34.599912 -117.366528 344 2842ft 11kts
10-Sep-20 09:50 34.588234 -117.381034 224 2966ft 130kts
10-Sep-20 09:51 34.569319 -117.419973 256 4004ft 138kts
10-Sep-20 09:52 34.562227 -117.464738 261 5226ft 127kts
10-Sep-20 09:53 34.556390 -117.507199 261 6296ft 129kts
10-Sep-20 09:54 34.550311 -117.550595 261 7251ft 132kts
10-Sep-20 09:55 34.544079 -117.594552 261 8113ft 132kts
10-Sep-20 09:56 34.537772 -117.638546 261 8900ft 133kts
10-Sep-20 09:57 34.531364 -117.682735 260 9624ft 133kts
10-Sep-20 09:58 34.524726 -117.728436 260 10036ft 150kts
10-Sep-20 09:59 34.516993 -117.782442 260 10014ft 170kts
10-Sep-20 10:00 34.538408 -117.829230 312 9955ft 172kts
10-Sep-20 10:01 34.563283 -117.878647 297 9982ft 172kts
10-Sep-20 10:02 34.583368 -117.931460 295 9982ft 172kts
10-Sep-20 10:03 34.602799 -117.984799 294 9983ft 173kts
10-Sep-20 10:04 34.622247 -118.038551 294 10001ft 173kts
10-Sep-20 10:05 34.596267 -118.080167 207 10021ft 174kts
10-Sep-20 10:06 34.552122 -118.105643 204 10003ft 176kts
10-Sep-20 10:07 34.507036 -118.129816 203 9997ft 177kts
10-Sep-20 10:08 34.462125 -118.153645 203 10075ft 172kts
10-Sep-20 10:09 34.417955 -118.177033 203 10102ft 175kts
10-Sep-20 10:10 34.373007 -118.200800 203 10072ft 177kts
10-Sep-20 10:11 34.327691 -118.224736 203 10039ft 178kts
10-Sep-20 10:12 34.282119 -118.248775 203 10016ft 178kts
10-Sep-20 10:13 34.236813 -118.272647 203 9998ft 178kts
10-Sep-20 10:14 34.189819 -118.285676 161 9810ft 181kts
10-Sep-20 10:15 34.143577 -118.261966 154 9262ft 180kts
10-Sep-20 10:16 34.098935 -118.236450 153 9006ft 175kts
10-Sep-20 10:17 34.052121 -118.220622 171 8517ft 178kts
10-Sep-20 10:18 34.003288 -118.211566 171 7746ft 177kts
10-Sep-20 10:19 33.954621 -118.202331 171 7005ft 177kts
10-Sep-20 10:20 33.907180 -118.193111 171 7006ft 171kts
10-Sep-20 10:21 33.860532 -118.184133 171 7014ft 169kts
10-Sep-20 10:22 33.814037 -118.175361 171 6843ft 169kts
10-Sep-20 10:23 33.768405 -118.166806 171 6210ft 164kts
10-Sep-20 10:24 33.740997 -118.131996 101 5477ft 162kts
10-Sep-20 10:25 33.731451 -118.079786 101 4994ft 152kts
10-Sep-20 10:26 33.722516 -118.030256 101 4362ft 148kts
10-Sep-20 10:27 33.714223 -117.983934 101 3080ft 135kts
10-Sep-20 10:28 33.707577 -117.946290 101 3078ft 128kts
10-Sep-20 10:29 33.731555 -117.913115 31 3069ft 154kts
10-Sep-20 10:30 33.768719 -117.885385 31 3016ft 158kts
10-Sep-20 10:31 33.805375 -117.857908 31 3001ft 153kts
10-Sep-20 10:32 33.841246 -117.830678 31 3004ft 151kts
10-Sep-20 10:33 33.876809 -117.803386 31 3008ft 151kts
10-Sep-20 10:34 33.901848 -117.767974 112 2996ft 153kts
10-Sep-20 10:35 33.862961 -117.757056 180 3029ft 153kts
10-Sep-20 10:36 33.823895 -117.774363 209 2997ft 147kts
10-Sep-20 10:37 33.792999 -117.794255 208 2835ft 110kts
10-Sep-20 10:38 33.765873 -117.811585 207 2578ft 108kts
10-Sep-20 10:39 33.741338 -117.827168 207 1927ft 99kts
10-Sep-20 10:40 33.716932 -117.842669 207 1212ft 99kts
10-Sep-20 10:41 33.692745 -117.858084 208 437ft 97kts
10-Sep-20 10:42 33.674099 -117.870333 268 60ft 14kts
10-Sep-20 10:43 33.674334 -117.870865 327 60ft 0kts
10-Sep-20 10:44 33.675763 -117.871236 30 60ft 0kts

Navigation Log

Ident Type
Flight plan parsing failed, navigation log unavailable